Time;durP1;ratioP1;P1;durP2;ratioP2;P2;SDS_P1;SDS_P2;PMS_P1;PMS_P2;Temp;Humidity;BMP_temperature;BMP_pressure;BME280_temperature;BME280_humidity;BME280_pressure;Samples;Min_cycle;Max_cycle;Signal;HPM_P1;HPM_P2
2022/07/22 04:00:42;;;;;;;10.63;6.57;;;15.90;96.30;;;;;;5983042;23;20528;-78
2022/07/22 04:03:08;;;;;;;7.87;6.17;;;16.30;96.30;;;;;;5006224;28;20452;-79
2022/07/22 04:05:33;;;;;;;10.03;7.30;;;16.80;96.30;;;;;;4997262;28;20213;-79
2022/07/22 04:07:58;;;;;;;9.43;6.60;;;17.20;96.30;;;;;;5002624;28;20189;-79
2022/07/22 04:10:24;;;;;;;10.13;7.00;;;17.40;96.30;;;;;;5011634;28;20558;-79
2022/07/22 04:12:50;;;;;;;8.87;7.40;;;17.70;96.30;;;;;;4991176;28;20174;-79
2022/07/22 04:15:15;;;;;;;8.10;6.90;;;17.90;96.30;;;;;;5003278;28;20679;-79
2022/07/22 04:17:41;;;;;;;8.43;7.33;;;18.00;96.30;;;;;;4997289;28;20192;-79
2022/07/22 04:20:07;;;;;;;10.17;6.80;;;18.10;96.30;;;;;;5005251;28;20181;-79
2022/07/22 04:22:33;;;;;;;7.70;7.00;;;18.50;96.30;;;;;;4991595;28;20198;-79
2022/07/22 04:24:58;;;;;;;7.67;6.90;;;18.90;96.30;;;;;;4983535;28;20448;-79
2022/07/22 04:27:24;;;;;;;10.73;6.30;;;19.40;96.30;;;;;;4979643;28;20189;-79
2022/07/22 04:29:49;;;;;;;10.67;5.80;;;19.70;96.30;;;;;;4980433;28;20170;-79
2022/07/22 04:32:15;;;;;;;6.27;5.70;;;20.20;96.30;;;;;;4980856;28;20541;-79
2022/07/22 04:34:41;;;;;;;10.23;6.40;;;20.50;96.30;;;;;;4978176;28;20200;-79
2022/07/22 04:37:07;;;;;;;8.50;6.20;;;20.40;96.30;;;;;;4978127;28;20194;-79
2022/07/22 04:39:32;;;;;;;14.37;6.40;;;20.40;96.30;;;;;;4978874;28;20905;-79
2022/07/22 04:41:58;;;;;;;7.40;5.83;;;20.60;96.30;;;;;;4997320;28;20207;-79
2022/07/22 04:44:23;;;;;;;7.73;6.27;;;20.80;96.30;;;;;;4990434;28;20208;-79
2022/07/22 04:46:49;;;;;;;7.10;6.40;;;21.10;96.30;;;;;;4998329;28;20285;-79
2022/07/22 04:49:14;;;;;;;8.37;6.33;;;21.40;96.30;;;;;;4996811;28;20169;-79
2022/07/22 04:51:40;;;;;;;7.70;6.40;;;21.80;96.30;;;;;;4999162;28;20612;-80
2022/07/22 04:54:05;;;;;;;7.50;6.23;;;22.10;96.30;;;;;;4999510;28;20177;-78
2022/07/22 04:56:31;;;;;;;7.43;6.00;;;22.50;96.30;;;;;;4995688;28;20267;-78
2022/07/22 04:58:56;;;;;;;9.43;6.70;;;22.70;96.30;;;;;;4994014;28;20216;-78
2022/07/22 05:01:22;;;;;;;10.37;6.70;;;23.10;96.30;;;;;;4994742;28;20237;-77
2022/07/22 05:03:47;;;;;;;8.60;6.50;;;23.50;96.30;;;;;;4994931;28;20184;-78
2022/07/22 05:06:13;;;;;;;9.10;7.07;;;24.20;96.30;;;;;;4994546;28;20215;-78
2022/07/22 05:08:39;;;;;;;9.80;6.30;;;24.40;95.70;;;;;;4995239;28;20177;-78
2022/07/22 05:11:04;;;;;;;6.83;6.23;;;24.60;94.80;;;;;;4989388;28;20225;-78
2022/07/22 05:13:30;;;;;;;8.50;6.70;;;24.40;96.30;;;;;;4975801;28;20536;-78
2022/07/22 05:15:55;;;;;;;7.00;6.40;;;24.60;94.60;;;;;;4975069;28;20669;-78
2022/07/22 05:18:20;;;;;;;7.40;6.70;;;24.20;96.30;;;;;;4983905;28;20196;-77
2022/07/22 05:20:46;;;;;;;8.57;5.97;;;24.70;96.00;;;;;;4993038;28;20561;-78
2022/07/22 05:23:11;;;;;;;7.07;6.37;;;25.70;92.00;;;;;;4993005;28;20565;-78
2022/07/22 05:25:37;;;;;;;7.77;6.40;;;25.80;91.30;;;;;;4994273;28;20200;-78
2022/07/22 05:28:03;;;;;;;6.73;6.03;;;25.80;91.90;;;;;;4993705;28;20671;-76
2022/07/22 05:30:28;;;;;;;6.67;5.97;;;25.80;91.40;;;;;;4993036;28;20173;-77
2022/07/22 05:32:54;;;;;;;6.43;5.83;;;26.10;90.40;;;;;;4994051;28;20177;-75
2022/07/22 05:35:19;;;;;;;6.20;5.70;;;26.40;89.50;;;;;;4994100;28;20590;-75
2022/07/22 05:37:46;;;;;;;7.00;6.03;;;27.00;87.70;;;;;;4986517;28;20265;-77
2022/07/22 05:40:12;;;;;;;16.70;6.70;;;26.90;88.10;;;;;;4973464;28;20545;-75
2022/07/22 05:42:37;;;;;;;8.70;5.80;;;27.00;88.20;;;;;;4965456;28;20453;-76
2022/07/22 05:45:03;;;;;;;9.40;5.83;;;26.80;88.40;;;;;;4955114;28;20766;-74
2022/07/22 05:47:29;;;;;;;11.77;6.30;;;26.90;87.60;;;;;;4967879;28;20181;-75
2022/07/22 05:49:54;;;;;;;7.00;6.10;;;27.40;86.20;;;;;;4974084;28;20634;-75
2022/07/22 05:52:20;;;;;;;8.00;6.47;;;27.50;85.50;;;;;;4974384;28;20190;-76
2022/07/22 05:54:45;;;;;;;7.53;5.90;;;28.00;84.00;;;;;;4974107;28;20208;-76
2022/07/22 05:57:11;;;;;;;9.10;5.70;;;27.90;85.10;;;;;;4974080;28;20660;-75
2022/07/22 05:59:37;;;;;;;6.60;6.00;;;28.60;82.90;;;;;;4973274;28;20192;-75
2022/07/22 06:02:03;;;;;;;6.03;5.40;;;28.30;83.90;;;;;;4974348;28;20241;-76
2022/07/22 06:04:28;;;;;;;7.90;6.30;;;28.60;82.60;;;;;;4973857;28;20181;-76
2022/07/22 06:06:54;;;;;;;6.63;5.97;;;28.40;83.80;;;;;;4974060;28;20471;-76
2022/07/22 06:09:20;;;;;;;6.70;6.00;;;28.00;84.40;;;;;;4978104;28;20644;-76
2022/07/22 06:11:46;;;;;;;6.50;5.60;;;28.40;83.50;;;;;;4963720;28;20201;-76
2022/07/22 06:14:11;;;;;;;9.80;5.45;;;28.90;82.60;;;;;;4968862;28;20181;-76
2022/07/22 06:16:37;;;;;;;5.43;4.93;;;29.50;82.20;;;;;;4965540;28;20269;-76
2022/07/22 06:19:03;;;;;;;5.80;5.05;;;29.90;79.40;;;;;;4952984;28;20372;-75
2022/07/22 06:21:28;;;;;;;6.13;5.05;;;29.70;80.60;;;;;;4960157;28;20201;-77
2022/07/22 06:23:54;;;;;;;6.88;4.43;;;31.00;77.00;;;;;;4972510;28;20688;-76
2022/07/22 06:26:19;;;;;;;7.35;5.13;;;31.50;76.50;;;;;;4973653;28;20201;-76
2022/07/22 06:28:45;;;;;;;6.05;5.05;;;30.90;76.00;;;;;;4973078;28;20173;-76
2022/07/22 06:31:11;;;;;;;5.47;4.10;;;30.30;79.20;;;;;;4973111;28;20194;-78
2022/07/22 06:33:37;;;;;;;4.43;4.03;;;31.10;77.10;;;;;;4959176;28;20186;-76
2022/07/22 06:36:03;;;;;;;5.65;4.45;;;31.40;77.50;;;;;;4957624;28;20305;-76
2022/07/22 06:38:28;;;;;;;4.38;3.97;;;31.30;75.60;;;;;;4962744;28;20277;-75
2022/07/22 06:40:54;;;;;;;4.65;4.25;;;31.10;78.50;;;;;;4959870;28;20213;-76
2022/07/22 06:43:20;;;;;;;5.90;4.10;;;30.30;77.90;;;;;;4957195;28;20228;-75
2022/07/22 06:45:45;;;;;;;6.60;4.90;;;29.40;81.20;;;;;;4973091;28;20216;-77
2022/07/22 06:48:11;;;;;;;5.33;4.83;;;29.40;82.30;;;;;;4972460;28;20264;-76
2022/07/22 06:50:36;;;;;;;5.70;5.22;;;30.60;79.40;;;;;;4973304;28;20245;-76
2022/07/22 06:53:02;;;;;;;5.95;4.85;;;30.80;78.10;;;;;;4972965;28;20565;-76
2022/07/22 06:55:28;;;;;;;4.68;4.38;;;31.20;76.80;;;;;;4972044;28;20537;-77
2022/07/22 06:57:53;;;;;;;7.38;4.28;;;31.30;77.80;;;;;;4973015;28;20257;-76
2022/07/22 07:00:19;;;;;;;6.10;4.82;;;31.80;74.60;;;;;;4973167;28;20661;-76
2022/07/22 07:02:45;;;;;;;5.22;4.72;;;32.60;74.30;;;;;;4973028;28;20268;-76
2022/07/22 07:05:10;;;;;;;8.98;4.95;;;33.00;72.60;;;;;;4973013;28;20205;-76
2022/07/22 07:07:36;;;;;;;5.15;4.70;;;32.80;73.10;;;;;;4972936;28;20601;-78
2022/07/22 07:10:01;;;;;;;6.55;4.80;;;31.90;75.70;;;;;;4971683;28;20613;-76
2022/07/22 07:12:27;;;;;;;5.35;4.85;;;31.80;76.70;;;;;;4986495;28;20277;-76
2022/07/22 07:14:52;;;;;;;8.82;5.00;;;32.90;74.30;;;;;;4985706;28;20177;-77
2022/07/22 07:17:18;;;;;;;7.70;5.03;;;33.20;72.30;;;;;;4957747;28;20661;-80
2022/07/22 07:19:43;;;;;;;5.72;5.10;;;33.20;73.60;;;;;;4957267;28;20177;-77
2022/07/22 07:22:09;;;;;;;8.60;5.50;;;33.50;72.40;;;;;;4964519;28;21857;-77
2022/07/22 07:24:34;;;;;;;6.07;4.38;;;32.80;73.00;;;;;;4962066;28;20248;-79
2022/07/22 07:27:00;;;;;;;10.30;5.55;;;32.60;72.70;;;;;;4970422;28;20217;-79
2022/07/22 07:29:25;;;;;;;5.03;4.50;;;33.00;74.30;;;;;;4970005;28;20638;-78
2022/07/22 07:31:51;;;;;;;13.45;5.45;;;33.30;73.10;;;;;;4958982;28;20204;-78
2022/07/22 07:34:16;;;;;;;11.20;5.45;;;33.60;72.90;;;;;;4975183;28;20183;-78
2022/07/22 07:36:42;;;;;;;6.07;4.57;;;33.40;70.80;;;;;;4974109;28;20558;-79
2022/07/22 07:39:07;;;;;;;7.75;4.90;;;33.20;73.10;;;;;;4974012;28;20190;-79
2022/07/22 07:41:33;;;;;;;5.55;4.63;;;33.80;71.70;;;;;;4992206;28;20208;-79
2022/07/22 07:43:58;;;;;;;5.72;5.13;;;33.90;69.70;;;;;;4993537;28;20188;-79
2022/07/22 07:46:24;;;;;;;6.28;4.78;;;33.80;72.20;;;;;;4995045;28;20213;-78
2022/07/22 07:48:50;;;;;;;7.22;4.53;;;34.60;67.60;;;;;;4994857;28;20196;-78
2022/07/22 07:51:15;;;;;;;9.13;4.20;;;34.40;69.10;;;;;;4991290;28;20225;-79
2022/07/22 07:53:41;;;;;;;5.65;5.15;;;34.10;71.30;;;;;;4976614;28;20541;-79
2022/07/22 07:56:06;;;;;;;5.55;5.05;;;34.20;68.30;;;;;;4978261;28;20182;-79
2022/07/22 07:58:32;;;;;;;4.95;4.55;;;34.40;68.40;;;;;;4978453;28;20260;-79
2022/07/22 08:00:58;;;;;;;6.85;5.28;;;33.50;70.90;;;;;;4976971;28;20216;-79
2022/07/22 08:03:23;;;;;;;8.27;5.57;;;33.40;72.80;;;;;;4977136;28;20177;-78
2022/07/22 08:05:49;;;;;;;5.75;5.15;;;33.50;70.40;;;;;;4976638;28;21763;-79
2022/07/22 08:08:14;;;;;;;7.00;5.10;;;33.20;72.90;;;;;;4978006;28;20532;-79
2022/07/22 08:10:40;;;;;;;8.23;5.35;;;32.70;72.20;;;;;;4993751;28;20177;-78
2022/07/22 08:13:06;;;;;;;5.90;4.78;;;33.30;73.00;;;;;;4989104;28;20228;-79
2022/07/22 08:15:32;;;;;;;7.07;4.93;;;33.70;70.80;;;;;;4972923;28;20191;-78
2022/07/22 08:17:59;;;;;;;8.85;5.50;;;32.70;73.60;;;;;;4959178;28;20220;-77
2022/07/22 08:20:25;;;;;;;5.30;4.90;;;32.20;72.60;;;;;;4959722;28;20194;-78
2022/07/22 08:22:52;;;;;;;6.55;5.53;;;32.10;73.10;;;;;;4971426;28;20237;-78
2022/07/22 08:25:18;;;;;;;11.17;6.10;;;32.20;75.70;;;;;;4974964;28;20198;-76
2022/07/22 08:27:43;;;;;;;7.30;6.37;;;32.30;74.20;;;;;;4958881;28;20181;-79
2022/07/22 08:30:09;;;;;;;8.90;6.30;;;31.10;75.50;;;;;;4961095;28;20216;-79
2022/07/22 08:32:35;;;;;;;10.03;5.77;;;30.70;77.50;;;;;;4960791;28;20268;-76
2022/07/22 08:35:01;;;;;;;6.37;5.77;;;31.70;77.00;;;;;;4975837;28;20413;-76
2022/07/22 08:37:27;;;;;;;6.37;5.77;;;32.20;71.70;;;;;;4975470;28;20169;-77
2022/07/22 08:39:53;;;;;;;9.20;6.90;;;32.20;74.90;;;;;;4978778;28;20212;-77
2022/07/22 08:42:21;;;;;;;7.83;6.30;;;32.20;71.80;;;;;;4987905;28;20198;-76
2022/07/22 08:44:47;;;;;;;6.67;6.07;;;31.40;75.30;;;;;;4974707;28;20201;-76
2022/07/22 08:47:13;;;;;;;7.90;6.60;;;31.00;76.10;;;;;;4975446;28;20495;-76
2022/07/22 08:49:39;;;;;;;8.47;6.37;;;31.30;76.60;;;;;;4975088;28;20193;-76
2022/07/22 08:52:04;;;;;;;15.67;6.30;;;32.50;73.80;;;;;;4975354;28;20189;-76
2022/07/22 08:54:30;;;;;;;7.97;5.77;;;32.50;73.70;;;;;;4975340;28;20185;-76
2022/07/22 08:56:55;;;;;;;7.00;6.30;;;31.50;73.10;;;;;;4975253;28;20181;-76
2022/07/22 08:59:20;;;;;;;9.03;5.80;;;32.10;73.80;;;;;;4963831;28;20694;-77
2022/07/22 09:02:02;;;;;;;6.23;5.60;;;32.00;75.70;;;;;;4974824;28;20216;-77
2022/07/22 09:04:28;;;;;;;9.10;6.47;;;31.60;76.00;;;;;;4959640;28;20545;-76
2022/07/22 09:06:54;;;;;;;6.40;5.90;;;32.10;75.90;;;;;;4956206;28;20460;-76
2022/07/22 09:09:30;;;;;;;7.00;6.07;;;33.00;73.70;;;;;;4959830;28;20429;-76
2022/07/22 09:12:07;;;;;;;11.90;5.70;;;32.90;70.50;;;;;;4974967;28;20225;-76
2022/07/22 09:14:47;;;;;;;6.67;5.63;;;31.70;73.70;;;;;;4974556;28;20782;-76
2022/07/22 09:17:31;;;;;;;7.30;5.40;;;31.90;77.20;;;;;;4955584;28;20410;-76
2022/07/22 09:19:58;;;;;;;17.53;6.30;;;32.40;75.50;;;;;;4969339;28;20439;-78
2022/07/22 09:22:41;;;;;;;5.97;5.30;;;32.80;74.00;;;;;;4974601;28;20457;-76
2022/07/22 09:25:33;;;;;;;9.13;5.60;;;32.40;74.20;;;;;;4974596;28;20405;-78
2022/07/22 09:28:08;;;;;;;9.13;5.30;;;32.20;71.40;;;;;;4955863;28;20417;-77
2022/07/22 09:30:37;;;;;;;8.70;5.20;;;32.80;72.00;;;;;;4959182;28;20444;-79
2022/07/22 09:33:03;;;;;;;9.10;5.30;;;32.70;71.00;;;;;;4959680;28;20425;-77
2022/07/22 09:35:30;;;;;;;5.87;5.00;;;33.00;72.20;;;;;;4960744;28;20236;-77
2022/07/22 09:38:00;;;;;;;5.57;4.97;;;32.50;71.60;;;;;;4967183;28;20432;-80
2022/07/22 09:40:31;;;;;;;6.57;5.60;;;32.60;71.80;;;;;;4966565;28;20457;-77
2022/07/22 09:43:00;;;;;;;6.80;5.53;;;32.40;72.40;;;;;;4955265;28;20421;-76
2022/07/22 09:45:28;;;;;;;5.70;5.03;;;32.40;73.10;;;;;;4954238;28;20466;-76
2022/07/22 09:47:55;;;;;;;12.00;5.20;;;32.80;73.40;;;;;;4971858;28;20501;-77
2022/07/22 09:50:22;;;;;;;6.87;4.80;;;32.50;73.40;;;;;;4974221;28;20425;-77
2022/07/22 09:52:49;;;;;;;8.40;5.87;;;32.60;74.10;;;;;;4974231;28;20948;-76
2022/07/22 09:55:16;;;;;;;8.13;5.33;;;32.20;75.10;;;;;;4973829;28;20428;-77
2022/07/22 09:57:43;;;;;;;8.47;5.67;;;32.00;74.10;;;;;;4973480;28;20611;-76
2022/07/22 10:00:09;;;;;;;5.77;5.17;;;31.40;71.10;;;;;;4973935;28;20456;-77
2022/07/22 10:02:56;;;;;;;8.17;5.37;;;31.00;75.90;;;;;;4974085;28;20532;-77
2022/07/22 10:05:24;;;;;;;7.13;5.10;;;30.70;74.10;;;;;;4974090;28;21171;-76
2022/07/22 10:07:50;;;;;;;11.83;5.63;;;31.00;76.80;;;;;;4971346;28;20418;-76
2022/07/22 10:10:18;;;;;;;13.30;6.17;;;31.20;74.30;;;;;;4974012;28;20409;-76
2022/07/22 10:12:48;;;;;;;7.87;5.17;;;31.50;73.00;;;;;;4967728;28;20194;-77
2022/07/22 10:15:17;;;;;;;6.60;5.30;;;31.50;74.30;;;;;;4962382;28;20445;-77
2022/07/22 10:17:47;;;;;;;5.37;4.83;;;30.80;71.60;;;;;;4965088;28;20465;-78
2022/07/22 10:20:20;;;;;;;6.43;4.83;;;30.80;73.60;;;;;;4982684;28;20412;-78
2022/07/22 10:22:50;;;;;;;7.07;5.50;;;31.20;75.20;;;;;;5712719;23;20498;-79
2022/07/22 10:25:18;;;;;;;9.63;5.50;;;31.50;73.10;;;;;;4994098;28;20405;-79
2022/07/22 10:28:02;;;;;;;6.17;4.60;;;31.20;73.70;;;;;;4992510;28;20439;-79
2022/07/22 10:30:37;;;;;;;9.50;5.40;;;31.00;72.80;;;;;;4992680;28;20843;-79
2022/07/22 10:33:14;;;;;;;8.87;5.40;;;30.90;72.30;;;;;;4976260;28;20421;-78
2022/07/22 10:36:06;;;;;;;6.43;4.87;;;30.40;75.80;;;;;;4977114;28;20431;-79
2022/07/22 10:38:32;;;;;;;6.87;5.20;;;31.00;73.90;;;;;;4974777;28;20424;-79
2022/07/22 10:41:00;;;;;;;5.13;4.63;;;30.40;73.10;;;;;;5001375;28;21051;-79
2022/07/22 10:43:27;;;;;;;6.90;4.87;;;30.40;74.20;;;;;;4996998;28;20431;-78
2022/07/22 10:45:56;;;;;;;8.10;5.87;;;30.60;75.00;;;;;;4992535;28;20864;-79
2022/07/22 10:48:36;;;;;;;5.83;4.50;;;30.80;74.90;;;;;;4992961;28;20408;-79
2022/07/22 10:51:08;;;;;;;6.10;5.30;;;30.80;74.50;;;;;;4993228;28;20432;-78
2022/07/22 10:53:52;;;;;;;9.13;4.93;;;30.90;73.10;;;;;;4992887;28;20405;-79
2022/07/22 10:56:29;;;;;;;5.23;4.60;;;31.00;75.50;;;;;;4991183;28;20801;-79
2022/07/22 10:59:09;;;;;;;9.50;5.03;;;31.10;75.40;;;;;;4987185;28;20919;-79
2022/07/22 11:01:36;;;;;;;7.07;4.60;;;31.30;73.20;;;;;;4984927;28;20452;-79
2022/07/22 11:04:22;;;;;;;6.37;4.43;;;31.90;74.30;;;;;;4993149;28;20430;-79
2022/07/22 11:06:53;;;;;;;8.30;4.80;;;32.00;72.70;;;;;;4992618;28;20475;-79
2022/07/22 11:09:21;;;;;;;5.90;5.10;;;32.50;72.30;;;;;;4991195;28;20423;-79
2022/07/22 11:11:52;;;;;;;6.20;4.17;;;32.30;71.40;;;;;;4992057;28;20447;-79
2022/07/22 11:14:30;;;;;;;6.67;4.80;;;32.00;71.60;;;;;;4992474;28;20503;-79
2022/07/22 11:16:57;;;;;;;5.20;4.67;;;31.50;71.60;;;;;;4972038;28;20511;-79
2022/07/22 11:19:25;;;;;;;6.03;4.53;;;31.00;73.70;;;;;;4971765;28;20433;-79
2022/07/22 11:21:53;;;;;;;6.40;4.50;;;31.30;74.10;;;;;;4971940;28;20447;-79
2022/07/22 11:24:20;;;;;;;6.73;5.00;;;31.00;74.30;;;;;;4973226;28;20925;-79
2022/07/22 11:26:51;;;;;;;11.63;5.20;;;31.20;74.40;;;;;;4975689;28;20464;-79
2022/07/22 11:29:26;;;;;;;7.43;4.50;;;31.30;74.00;;;;;;4979875;28;20418;-79
2022/07/22 11:31:52;;;;;;;5.90;4.80;;;31.30;70.70;;;;;;4986387;28;20444;-79
2022/07/22 11:34:17;;;;;;;8.93;4.10;;;31.10;72.60;;;;;;4996237;28;20424;-79
2022/07/22 11:36:45;;;;;;;5.63;4.40;;;31.50;74.40;;;;;;4985580;28;20186;-79
2022/07/22 11:39:12;;;;;;;4.90;4.40;;;30.00;72.10;;;;;;4978773;28;20189;-79
2022/07/22 11:41:38;;;;;;;8.77;5.20;;;30.80;76.10;;;;;;4979069;28;20505;-79
2022/07/22 11:44:05;;;;;;;6.80;4.83;;;31.50;72.30;;;;;;4985059;28;20876;-78
2022/07/22 11:46:41;;;;;;;5.27;4.77;;;31.50;68.40;;;;;;4996357;28;20606;-79
2022/07/22 11:49:08;;;;;;;4.50;4.00;;;30.60;71.80;;;;;;4994786;28;20416;-79
2022/07/22 11:51:36;;;;;;;6.20;4.70;;;30.30;73.50;;;;;;4979891;28;20452;-78
2022/07/22 11:54:03;;;;;;;4.33;3.93;;;30.30;73.30;;;;;;4979236;28;20454;-78
2022/07/22 11:56:29;;;;;;;6.77;4.00;;;30.90;73.50;;;;;;4984083;28;20498;-78
2022/07/22 11:58:56;;;;;;;6.00;3.97;;;30.20;73.20;;;;;;4993797;28;20428;-78
2022/07/22 12:01:24;;;;;;;4.33;3.90;;;30.50;73.50;;;;;;4995221;28;20751;-78
2022/07/22 12:03:52;;;;;;;4.50;4.10;;;30.80;74.40;;;;;;4991676;28;20431;-78
2022/07/22 12:06:19;;;;;;;6.20;4.43;;;31.10;72.20;;;;;;4995558;28;20459;-78
2022/07/22 12:08:48;;;;;;;4.53;4.10;;;31.10;71.10;;;;;;4995684;28;20416;-78
2022/07/22 12:11:16;;;;;;;4.80;4.40;;;30.60;70.90;;;;;;5016099;28;20455;-78
2022/07/22 12:13:46;;;;;;;9.80;4.73;;;29.80;74.70;;;;;;5014455;28;20439;-78
2022/07/22 12:16:27;;;;;;;8.30;4.53;;;29.80;73.80;;;;;;5015964;28;20774;-77
2022/07/22 12:19:14;;;;;;;7.27;3.90;;;30.80;73.60;;;;;;5003344;28;20416;-77
2022/07/22 12:21:59;;;;;;;7.37;3.87;;;30.60;73.10;;;;;;4990548;28;20518;-77
2022/07/22 12:24:34;;;;;;;6.00;4.43;;;31.20;73.70;;;;;;4980227;28;20451;-78
2022/07/22 12:27:12;;;;;;;8.90;4.53;;;31.40;71.40;;;;;;4981699;28;20451;-78
2022/07/22 12:29:37;;;;;;;6.40;4.97;;;31.40;68.30;;;;;;4975918;28;20408;-78
2022/07/22 12:32:23;;;;;;;6.10;4.13;;;31.30;68.00;;;;;;4985655;28;20434;-78
2022/07/22 12:34:55;;;;;;;5.10;3.83;;;31.40;71.00;;;;;;4989329;28;20197;-75
2022/07/22 12:37:23;;;;;;;4.03;3.33;;;30.60;73.10;;;;;;4995273;28;20907;-76
2022/07/22 12:40:08;;;;;;;5.13;4.30;;;31.20;74.30;;;;;;4997655;28;20509;-75
2022/07/22 12:42:39;;;;;;;6.50;4.90;;;31.80;71.90;;;;;;4996661;28;20479;-77
2022/07/22 12:45:17;;;;;;;12.27;4.40;;;32.30;71.90;;;;;;5002960;28;20779;-77
2022/07/22 12:47:59;;;;;;;5.23;4.60;;;32.60;69.50;;;;;;4994528;28;20779;-76
2022/07/22 12:50:37;;;;;;;8.93;4.30;;;32.00;68.00;;;;;;5005270;28;20934;-77
2022/07/22 12:53:07;;;;;;;6.93;4.17;;;31.60;70.50;;;;;;5013130;28;20411;-76
2022/07/22 12:55:35;;;;;;;5.27;3.87;;;31.60;71.30;;;;;;5014571;28;20400;-76
2022/07/22 12:58:02;;;;;;;5.80;4.20;;;31.90;69.50;;;;;;5014018;28;20408;-77
2022/07/22 13:00:30;;;;;;;4.60;4.00;;;32.10;68.80;;;;;;5011117;28;20415;-78
2022/07/22 13:02:56;;;;;;;4.07;3.67;;;32.10;67.70;;;;;;4984360;28;20424;-76
2022/07/22 13:05:23;;;;;;;4.87;3.67;;;31.90;70.10;;;;;;4985549;28;20783;-76
2022/07/22 13:07:49;;;;;;;6.13;4.60;;;31.90;70.80;;;;;;4976840;28;20169;-76
2022/07/22 13:10:16;;;;;;;6.10;4.10;;;31.90;70.80;;;;;;5001887;28;20928;-78
2022/07/22 13:12:41;;;;;;;4.90;4.00;;;32.10;71.50;;;;;;5012970;28;20435;-77
2022/07/22 13:15:07;;;;;;;5.60;4.33;;;32.20;72.20;;;;;;5013944;28;20465;-77
2022/07/22 13:17:33;;;;;;;6.23;4.13;;;32.20;70.90;;;;;;5013675;28;20173;-77
2022/07/22 13:19:59;;;;;;;7.77;4.33;;;32.40;70.60;;;;;;5014050;28;20791;-75
2022/07/22 13:22:24;;;;;;;5.30;4.40;;;32.30;71.20;;;;;;5013539;28;20204;-75
2022/07/22 13:24:50;;;;;;;7.00;4.33;;;32.30;70.40;;;;;;5013956;28;20573;-75
2022/07/22 13:27:16;;;;;;;8.20;4.20;;;32.00;67.70;;;;;;5013761;28;20192;-76
2022/07/22 13:29:41;;;;;;;12.80;4.10;;;31.60;71.20;;;;;;5011176;28;20187;-77
2022/07/22 13:32:07;;;;;;;5.70;3.60;;;31.30;70.90;;;;;;5001957;28;20198;-75
2022/07/22 13:34:32;;;;;;;3.80;3.50;;;30.90;71.90;;;;;;5004505;28;20180;-76
2022/07/22 13:36:59;;;;;;;7.90;4.50;;;30.70;71.30;;;;;;5011906;28;20176;-76
2022/07/22 13:39:25;;;;;;;6.57;4.13;;;30.60;70.50;;;;;;5011891;28;20546;-77
2022/07/22 13:41:50;;;;;;;3.97;3.67;;;30.20;71.70;;;;;;4997327;28;20956;-77
2022/07/22 13:44:16;;;;;;;5.00;4.40;;;30.30;71.60;;;;;;5001714;28;20176;-78
2022/07/22 13:46:42;;;;;;;4.73;3.60;;;30.80;72.50;;;;;;5007009;28;20204;-76
2022/07/22 13:49:07;;;;;;;6.50;4.17;;;30.70;71.10;;;;;;5013395;28;20175;-76
2022/07/22 13:51:33;;;;;;;5.40;4.13;;;30.80;73.90;;;;;;5013087;28;20275;-76
2022/07/22 13:53:58;;;;;;;5.20;4.00;;;31.20;71.10;;;;;;5013453;28;20168;-76
2022/07/22 13:56:24;;;;;;;5.03;3.90;;;30.80;71.00;;;;;;5013285;28;20180;-75
2022/07/22 13:58:50;;;;;;;6.90;4.40;;;30.30;73.90;;;;;;5001618;28;20261;-77
2022/07/22 14:01:16;;;;;;;5.27;4.20;;;30.40;72.80;;;;;;5001303;28;20209;-76
2022/07/22 14:03:41;;;;;;;5.73;4.20;;;30.90;72.60;;;;;;5002640;28;20211;-76
2022/07/22 14:06:08;;;;;;;7.07;4.50;;;31.10;72.10;;;;;;5001320;28;20213;-77
2022/07/22 14:08:35;;;;;;;5.90;3.80;;;31.00;70.50;;;;;;4993205;28;20633;-77
2022/07/22 14:11:00;;;;;;;6.23;3.87;;;30.90;72.50;;;;;;4992080;28;20465;-75
2022/07/22 14:13:25;;;;;;;4.83;3.40;;;31.10;72.80;;;;;;4992478;28;20471;-76
2022/07/22 14:15:51;;;;;;;4.67;3.53;;;31.00;74.10;;;;;;4993342;28;20209;-77
2022/07/22 14:18:16;;;;;;;4.60;4.00;;;30.80;73.60;;;;;;4993157;28;20184;-76
2022/07/22 14:20:42;;;;;;;6.90;4.20;;;31.00;72.50;;;;;;4993167;28;20521;-76
2022/07/22 14:23:11;;;;;;;5.93;3.70;;;31.00;72.80;;;;;;4993117;28;20189;-78
2022/07/22 14:25:37;;;;;;;4.33;3.93;;;30.90;71.30;;;;;;4993255;28;20215;-77
2022/07/22 14:28:04;;;;;;;8.17;4.20;;;31.00;71.40;;;;;;4992887;28;20412;-77
2022/07/22 14:30:31;;;;;;;6.13;4.20;;;31.30;72.30;;;;;;4993093;28;20408;-77
2022/07/22 14:32:57;;;;;;;4.80;3.80;;;31.30;71.30;;;;;;4993083;28;20470;-77
2022/07/22 14:35:22;;;;;;;5.60;3.80;;;31.30;71.40;;;;;;4993129;28;20758;-77
2022/07/22 14:37:48;;;;;;;5.30;3.93;;;31.10;71.50;;;;;;4992812;28;20173;-77
2022/07/22 14:40:14;;;;;;;4.70;3.60;;;31.60;70.30;;;;;;4999320;28;20168;-77
2022/07/22 14:42:39;;;;;;;5.20;3.80;;;31.40;70.70;;;;;;5012328;28;20438;-77
2022/07/22 14:45:08;;;;;;;4.03;3.57;;;30.90;70.80;;;;;;5012803;28;20234;-77
2022/07/22 14:47:33;;;;;;;14.23;3.97;;;31.30;71.20;;;;;;5012172;28;20617;-77
2022/07/22 14:49:58;;;;;;;6.53;3.40;;;31.60;72.30;;;;;;5012444;28;20906;-77
2022/07/22 14:52:24;;;;;;;6.80;4.23;;;31.50;70.30;;;;;;5012581;28;20275;-76
2022/07/22 14:54:49;;;;;;;5.00;3.73;;;31.00;71.60;;;;;;5012466;28;20165;-77
2022/07/22 14:57:15;;;;;;;5.20;3.73;;;30.70;71.40;;;;;;5012260;28;20272;-76
2022/07/22 14:59:40;;;;;;;6.80;3.90;;;30.60;72.00;;;;;;5012116;28;20230;-76
2022/07/22 15:02:06;;;;;;;5.43;4.17;;;30.60;71.70;;;;;;5011687;28;20835;-77
2022/07/22 15:04:32;;;;;;;10.53;4.13;;;30.40;71.90;;;;;;5011912;28;20181;-76
2022/07/22 15:06:57;;;;;;;5.53;3.93;;;30.10;73.20;;;;;;5012355;28;20280;-77
2022/07/22 15:09:23;;;;;;;5.93;4.17;;;29.90;73.20;;;;;;5006678;28;20501;-78
2022/07/22 15:11:49;;;;;;;8.53;3.87;;;30.20;73.00;;;;;;4992372;28;20196;-78
2022/07/22 15:14:14;;;;;;;7.07;3.47;;;30.50;72.90;;;;;;5000884;28;20177;-76
2022/07/22 15:16:40;;;;;;;4.33;3.93;;;30.60;73.00;;;;;;5012516;28;20414;-77
2022/07/22 15:19:05;;;;;;;6.10;3.80;;;30.80;72.40;;;;;;5003795;28;20180;-77
2022/07/22 15:21:31;;;;;;;6.70;4.30;;;30.60;71.70;;;;;;5007213;28;20203;-77
2022/07/22 15:23:57;;;;;;;7.03;3.77;;;30.30;73.00;;;;;;5004190;28;20188;-77
2022/07/22 15:26:23;;;;;;;10.00;4.73;;;30.20;72.30;;;;;;5012538;28;20966;-77
2022/07/22 15:28:50;;;;;;;6.97;4.03;;;30.60;73.10;;;;;;5006548;28;20451;-77
2022/07/22 15:31:15;;;;;;;5.73;3.80;;;30.60;69.70;;;;;;5001622;28;20236;-78
2022/07/22 15:33:41;;;;;;;4.73;3.50;;;30.80;69.70;;;;;;4993482;28;20412;-77
2022/07/22 15:36:08;;;;;;;4.73;3.60;;;30.70;72.20;;;;;;4993804;28;20514;-77
2022/07/22 15:38:35;;;;;;;3.70;3.30;;;30.70;73.50;;;;;;4993390;28;20176;-78
2022/07/22 15:41:02;;;;;;;5.37;4.30;;;30.60;72.00;;;;;;4993331;28;20452;-77
2022/07/22 15:43:27;;;;;;;4.43;3.97;;;30.10;71.00;;;;;;5004881;28;20419;-77
2022/07/22 15:45:53;;;;;;;10.97;4.30;;;30.00;72.10;;;;;;5013349;28;20950;-78
2022/07/22 15:48:18;;;;;;;4.10;3.70;;;30.00;72.90;;;;;;5012923;28;20177;-78
2022/07/22 15:50:44;;;;;;;4.73;3.50;;;30.00;72.80;;;;;;5010461;28;20172;-77
2022/07/22 15:53:09;;;;;;;4.87;3.50;;;30.10;72.20;;;;;;4993136;28;20189;-78
2022/07/22 15:55:36;;;;;;;7.90;4.07;;;30.30;73.10;;;;;;5020573;28;20204;-80
2022/07/22 16:00:46;;;;;;;12.10;3.77;;;30.50;73.00;;;;;;4981314;28;20423;-76
2022/07/22 16:03:11;;;;;;;5.33;3.60;;;30.40;73.40;;;;;;4990984;28;20475;-77
2022/07/22 16:05:37;;;;;;;4.57;3.60;;;30.40;71.30;;;;;;4998688;28;20874;-77
2022/07/22 16:08:03;;;;;;;6.17;3.70;;;30.20;73.40;;;;;;4991810;28;20555;-76
2022/07/22 16:10:28;;;;;;;6.23;3.73;;;30.10;73.50;;;;;;5003344;28;20200;-76
2022/07/22 16:12:54;;;;;;;5.60;4.40;;;30.00;73.10;;;;;;4999481;28;20641;-76
2022/07/22 16:15:19;;;;;;;6.60;3.73;;;29.80;72.70;;;;;;5010544;28;20253;-78
2022/07/22 16:17:45;;;;;;;5.93;3.67;;;29.70;72.80;;;;;;5014978;28;20183;-78
2022/07/22 16:20:10;;;;;;;5.43;3.43;;;29.60;73.80;;;;;;5003519;28;20456;-78
2022/07/22 16:38:08;;;;;;;6.60;3.40;;;28.90;74.20;;;;;;5333271;23;20502;-78
2022/07/22 16:40:34;;;;;;;6.13;2.70;;;29.00;74.00;;;;;;4983203;28;20785;-75
2022/07/22 16:43:00;;;;;;;6.30;3.23;;;28.90;75.00;;;;;;4992335;28;20650;-77
2022/07/22 16:45:27;;;;;;;3.63;3.17;;;28.60;76.10;;;;;;4986415;28;20181;-77
2022/07/22 16:47:52;;;;;;;5.00;3.57;;;28.60;76.50;;;;;;4978280;28;20768;-78
2022/07/22 16:50:18;;;;;;;16.07;3.40;;;28.60;76.10;;;;;;4973164;28;20429;-79
2022/07/22 16:52:43;;;;;;;7.97;3.40;;;28.50;75.20;;;;;;4967432;28;20198;-76
2022/07/22 16:55:09;;;;;;;3.30;2.80;;;28.50;75.90;;;;;;4965875;28;20174;-76
2022/07/22 16:57:34;;;;;;;4.50;2.80;;;28.40;76.00;;;;;;4968843;28;20574;-76
2022/07/22 17:00:00;;;;;;;5.97;2.53;;;28.20;77.10;;;;;;4972226;28;20189;-77
2022/07/22 17:02:26;;;;;;;8.10;2.73;;;28.00;76.70;;;;;;4975081;28;20688;-76
2022/07/22 17:04:51;;;;;;;3.60;3.10;;;27.70;76.70;;;;;;4975104;28;20638;-78